sensor_id;sensor_type;location;lat;lon;timestamp;pressure;altitude;pressure_sealevel;temperature;humidity
32875;BME280;40468;42.128;24.750;2023-08-08T00:00:44;99256.78;;;23.22;46.11
32875;BME280;40468;42.128;24.750;2023-08-08T00:02:16;99241.84;;;23.21;46.25
32875;BME280;40468;42.128;24.750;2023-08-08T00:03:46;99251.47;;;23.22;45.97
32875;BME280;40468;42.128;24.750;2023-08-08T00:05:18;99243.50;;;23.22;45.97
32875;BME280;40468;42.128;24.750;2023-08-08T00:06:48;99254.97;;;23.22;45.78
32875;BME280;40468;42.128;24.750;2023-08-08T00:08:20;99249.50;;;23.24;46.02
32875;BME280;40468;42.128;24.750;2023-08-08T00:09:50;99245.00;;;23.24;46.22
32875;BME280;40468;42.128;24.750;2023-08-08T00:11:23;99244.03;;;23.25;45.93
32875;BME280;40468;42.128;24.750;2023-08-08T00:12:54;99259.97;;;23.25;46.02
32875;BME280;40468;42.128;24.750;2023-08-08T00:14:25;99246.00;;;23.23;46.17
32875;BME280;40468;42.128;24.750;2023-08-08T00:15:56;99245.84;;;23.25;46.21
32875;BME280;40468;42.128;24.750;2023-08-08T00:17:27;99245.00;;;23.24;46.22
32875;BME280;40468;42.128;24.750;2023-08-08T00:18:58;99248.00;;;23.21;46.18
32875;BME280;40468;42.128;24.750;2023-08-08T00:20:29;99248.66;;;23.23;46.35
32875;BME280;40468;42.128;24.750;2023-08-08T00:22:00;99250.66;;;23.21;46.47
32875;BME280;40468;42.128;24.750;2023-08-08T00:23:32;99254.31;;;23.20;46.51
32875;BME280;40468;42.128;24.750;2023-08-08T00:25:03;99254.31;;;23.20;46.31
32875;BME280;40468;42.128;24.750;2023-08-08T00:26:36;99264.44;;;23.25;46.22
32875;BME280;40468;42.128;24.750;2023-08-08T00:28:07;99266.25;;;23.24;46.20
32875;BME280;40468;42.128;24.750;2023-08-08T00:29:38;99263.94;;;23.21;46.46
32875;BME280;40468;42.128;24.750;2023-08-08T00:31:09;99267.75;;;23.19;46.75
32875;BME280;40468;42.128;24.750;2023-08-08T00:32:40;99262.75;;;23.15;46.96
32875;BME280;40468;42.128;24.750;2023-08-08T00:34:11;99265.72;;;23.12;47.10
32875;BME280;40468;42.128;24.750;2023-08-08T00:35:42;99258.78;;;23.11;47.15
32875;BME280;40468;42.128;24.750;2023-08-08T00:37:13;99261.25;;;23.13;47.24
32875;BME280;40468;42.128;24.750;2023-08-08T00:38:45;99266.56;;;23.13;47.21
32875;BME280;40468;42.128;24.750;2023-08-08T00:40:16;99268.38;;;23.12;47.42
32875;BME280;40468;42.128;24.750;2023-08-08T00:41:48;99265.91;;;23.11;47.48
32875;BME280;40468;42.128;24.750;2023-08-08T00:43:20;99261.75;;;23.08;47.51
32875;BME280;40468;42.128;24.750;2023-08-08T00:44:50;99268.91;;;23.08;47.63
32875;BME280;40468;42.128;24.750;2023-08-08T00:46:22;99264.56;;;23.07;47.64
32875;BME280;40468;42.128;24.750;2023-08-08T00:47:54;99259.44;;;23.05;47.81
32875;BME280;40468;42.128;24.750;2023-08-08T00:49:26;99263.22;;;23.03;47.92
32875;BME280;40468;42.128;24.750;2023-08-08T00:50:57;99259.56;;;23.04;48.03
32875;BME280;40468;42.128;24.750;2023-08-08T00:52:28;99257.91;;;23.03;48.08
32875;BME280;40468;42.128;24.750;2023-08-08T00:54:00;99260.91;;;23.00;48.53
32875;BME280;40468;42.128;24.750;2023-08-08T00:55:32;99262.88;;;22.98;48.62
32875;BME280;40468;42.128;24.750;2023-08-08T00:57:04;99262.22;;;22.96;48.39
32875;BME280;40468;42.128;24.750;2023-08-08T00:58:36;99261.38;;;22.95;48.84
32875;BME280;40468;42.128;24.750;2023-08-08T01:00:07;99266.00;;;22.93;49.00
32875;BME280;40468;42.128;24.750;2023-08-08T01:01:39;99264.50;;;22.90;48.90
32875;BME280;40468;42.128;24.750;2023-08-08T01:03:10;99257.53;;;22.89;49.20
32875;BME280;40468;42.128;24.750;2023-08-08T01:04:42;99258.38;;;22.90;49.35
32875;BME280;40468;42.128;24.750;2023-08-08T01:06:14;99278.78;;;22.89;49.44
32875;BME280;40468;42.128;24.750;2023-08-08T01:07:49;99270.13;;;22.87;49.23
32875;BME280;40468;42.128;24.750;2023-08-08T01:09:23;99266.66;;;22.87;49.42
32875;BME280;40468;42.128;24.750;2023-08-08T01:10:55;99269.44;;;22.85;49.38
32875;BME280;40468;42.128;24.750;2023-08-08T01:12:27;99271.59;;;22.82;49.72
32875;BME280;40468;42.128;24.750;2023-08-08T01:13:59;99269.78;;;22.82;49.73
32875;BME280;40468;42.128;24.750;2023-08-08T01:15:31;99269.78;;;22.82;49.69
32875;BME280;40468;42.128;24.750;2023-08-08T01:17:05;99284.69;;;22.83;49.52
32875;BME280;40468;42.128;24.750;2023-08-08T01:18:37;99283.06;;;22.82;49.69
32875;BME280;40468;42.128;24.750;2023-08-08T01:20:09;99285.03;;;22.80;50.02
32875;BME280;40468;42.128;24.750;2023-08-08T01:21:42;99280.03;;;22.77;50.01
32875;BME280;40468;42.128;24.750;2023-08-08T01:23:15;99292.47;;;22.77;50.13
32875;BME280;40468;42.128;24.750;2023-08-08T01:24:48;99291.66;;;22.76;50.04
32875;BME280;40468;42.128;24.750;2023-08-08T01:26:20;99296.78;;;22.69;50.18
32875;BME280;40468;42.128;24.750;2023-08-08T01:29:23;99288.44;;;22.64;49.99
32875;BME280;40468;42.128;24.750;2023-08-08T01:30:54;99299.38;;;22.61;49.97
32875;BME280;40468;42.128;24.750;2023-08-08T01:32:25;99306.53;;;22.61;50.06
32875;BME280;40468;42.128;24.750;2023-08-08T01:33:56;99301.53;;;22.58;49.96
32875;BME280;40468;42.128;24.750;2023-08-08T01:35:29;99300.47;;;22.51;50.07
32875;BME280;40468;42.128;24.750;2023-08-08T01:37:02;99305.13;;;22.48;49.92
32875;BME280;40468;42.128;24.750;2023-08-08T01:38:38;99301.13;;;22.44;50.11
32875;BME280;40468;42.128;24.750;2023-08-08T01:40:13;99309.25;;;22.43;50.18
32875;BME280;40468;42.128;24.750;2023-08-08T01:41:46;99305.91;;;22.41;50.16
32875;BME280;40468;42.128;24.750;2023-08-08T01:43:18;99303.44;;;22.39;49.98
32875;BME280;40468;42.128;24.750;2023-08-08T01:44:51;99305.22;;;22.39;50.03
32875;BME280;40468;42.128;24.750;2023-08-08T01:46:23;99307.22;;;22.37;50.11
32875;BME280;40468;42.128;24.750;2023-08-08T01:47:55;99304.06;;;22.33;50.08
32875;BME280;40468;42.128;24.750;2023-08-08T01:49:25;99311.03;;;22.34;50.04
32875;BME280;40468;42.128;24.750;2023-08-08T01:50:57;99307.53;;;22.34;50.11
32875;BME280;40468;42.128;24.750;2023-08-08T01:52:28;99314.81;;;22.32;50.40
32875;BME280;40468;42.128;24.750;2023-08-08T01:53:59;99309.66;;;22.30;50.41
32875;BME280;40468;42.128;24.750;2023-08-08T01:55:31;99321.94;;;22.31;50.33
32875;BME280;40468;42.128;24.750;2023-08-08T01:57:03;99314.13;;;22.30;50.46
32875;BME280;40468;42.128;24.750;2023-08-08T01:58:34;99310.66;;;22.29;50.30
32875;BME280;40468;42.128;24.750;2023-08-08T02:00:06;99318.59;;;22.29;50.21
32875;BME280;40468;42.128;24.750;2023-08-08T02:01:37;99316.94;;;22.28;50.40
32875;BME280;40468;42.128;24.750;2023-08-08T02:03:08;99318.22;;;22.24;50.67
32875;BME280;40468;42.128;24.750;2023-08-08T02:04:39;99321.19;;;22.21;50.53
32875;BME280;40468;42.128;24.750;2023-08-08T02:06:10;99328.63;;;22.17;50.65
32875;BME280;40468;42.128;24.750;2023-08-08T02:07:41;99331.06;;;22.11;50.87
32875;BME280;40468;42.128;24.750;2023-08-08T02:09:12;99328.72;;;22.08;50.78
32875;BME280;40468;42.128;24.750;2023-08-08T02:10:46;99325.84;;;22.01;51.13
32875;BME280;40468;42.128;24.750;2023-08-08T02:12:17;99333.44;;;21.96;51.26
32875;BME280;40468;42.128;24.750;2023-08-08T02:13:48;99339.03;;;21.93;51.32
32875;BME280;40468;42.128;24.750;2023-08-08T02:15:20;99334.19;;;21.88;51.46
32875;BME280;40468;42.128;24.750;2023-08-08T02:16:50;99334.88;;;21.90;51.40
32875;BME280;40468;42.128;24.750;2023-08-08T02:18:22;99344.94;;;21.87;51.56
32875;BME280;40468;42.128;24.750;2023-08-08T02:19:52;99337.97;;;21.86;51.63
32875;BME280;40468;42.128;24.750;2023-08-08T02:21:24;99339.78;;;21.85;51.53
32875;BME280;40468;42.128;24.750;2023-08-08T02:22:56;99344.25;;;21.85;51.59
32875;BME280;40468;42.128;24.750;2023-08-08T02:24:26;99348.03;;;21.82;51.71
32875;BME280;40468;42.128;24.750;2023-08-08T02:25:59;99344.75;;;21.80;52.06
32875;BME280;40468;42.128;24.750;2023-08-08T02:27:30;99346.69;;;21.78;51.87
32875;BME280;40468;42.128;24.750;2023-08-08T02:29:01;99361.22;;;21.74;51.94
32875;BME280;40468;42.128;24.750;2023-08-08T02:30:32;99352.91;;;21.69;52.17
32875;BME280;40468;42.128;24.750;2023-08-08T02:32:04;99362.13;;;21.65;52.30
32875;BME280;40468;42.128;24.750;2023-08-08T02:33:34;99355.59;;;21.59;52.48
32875;BME280;40468;42.128;24.750;2023-08-08T02:35:06;99351.31;;;21.58;52.42
32875;BME280;40468;42.128;24.750;2023-08-08T02:36:38;99359.41;;;21.56;52.39
32875;BME280;40468;42.128;24.750;2023-08-08T02:38:10;99364.72;;;21.56;52.58
32875;BME280;40468;42.128;24.750;2023-08-08T02:39:41;99367.38;;;21.56;52.25
32875;BME280;40468;42.128;24.750;2023-08-08T02:41:14;99363.34;;;21.52;52.59
32875;BME280;40468;42.128;24.750;2023-08-08T02:42:44;99371.59;;;21.49;52.74
32875;BME280;40468;42.128;24.750;2023-08-08T02:44:16;99371.88;;;21.46;52.79
32875;BME280;40468;42.128;24.750;2023-08-08T02:45:46;99364.25;;;21.43;52.73
32875;BME280;40468;42.128;24.750;2023-08-08T02:47:18;99375.00;;;21.42;52.94
32875;BME280;40468;42.128;24.750;2023-08-08T02:48:48;99365.41;;;21.31;53.26
32875;BME280;40468;42.128;24.750;2023-08-08T02:50:20;99374.03;;;21.33;53.50
32875;BME280;40468;42.128;24.750;2023-08-08T02:51:50;99379.78;;;21.28;53.50
32875;BME280;40468;42.128;24.750;2023-08-08T02:53:22;99374.63;;;21.27;53.69
32875;BME280;40468;42.128;24.750;2023-08-08T02:54:52;99373.34;;;21.31;53.19
32875;BME280;40468;42.128;24.750;2023-08-08T02:56:25;99384.94;;;21.30;53.40
32875;BME280;40468;42.128;24.750;2023-08-08T02:57:57;99388.72;;;21.27;53.52
32875;BME280;40468;42.128;24.750;2023-08-08T02:59:27;99389.84;;;21.25;53.92
32875;BME280;40468;42.128;24.750;2023-08-08T03:00:59;99387.59;;;21.20;53.93
32875;BME280;40468;42.128;24.750;2023-08-08T03:02:30;99384.31;;;21.18;54.26
32875;BME280;40468;42.128;24.750;2023-08-08T03:04:01;99386.38;;;21.14;54.21
32875;BME280;40468;42.128;24.750;2023-08-08T03:05:32;99391.69;;;21.14;54.38
32875;BME280;40468;42.128;24.750;2023-08-08T03:07:04;99407.56;;;21.14;54.41
32875;BME280;40468;42.128;24.750;2023-08-08T03:08:36;99395.22;;;21.05;55.03
32875;BME280;40468;42.128;24.750;2023-08-08T03:10:06;99397.78;;;20.97;55.35
32875;BME280;40468;42.128;24.750;2023-08-08T03:11:40;99401.53;;;20.95;55.52
32875;BME280;40468;42.128;24.750;2023-08-08T03:13:12;99403.78;;;20.89;55.93
32875;BME280;40468;42.128;24.750;2023-08-08T03:14:44;99415.78;;;20.84;56.05
32875;BME280;40468;42.128;24.750;2023-08-08T03:16:15;99407.84;;;20.84;55.91
32875;BME280;40468;42.128;24.750;2023-08-08T03:17:46;99405.19;;;20.84;56.14
32875;BME280;40468;42.128;24.750;2023-08-08T03:19:17;99409.66;;;20.83;56.22
32875;BME280;40468;42.128;24.750;2023-08-08T03:20:48;99421.34;;;20.81;56.46
32875;BME280;40468;42.128;24.750;2023-08-08T03:22:19;99415.53;;;20.77;56.86
32875;BME280;40468;42.128;24.750;2023-08-08T03:23:51;99423.22;;;20.71;57.25
32875;BME280;40468;42.128;24.750;2023-08-08T03:25:21;99426.81;;;20.70;57.22
32875;BME280;40468;42.128;24.750;2023-08-08T03:26:54;99425.00;;;20.70;57.16
32875;BME280;40468;42.128;24.750;2023-08-08T03:28:25;99439.38;;;20.67;57.52
32875;BME280;40468;42.128;24.750;2023-08-08T03:29:56;99442.97;;;20.66;57.50
32875;BME280;40468;42.128;24.750;2023-08-08T03:31:27;99447.84;;;20.61;58.12
32875;BME280;40468;42.128;24.750;2023-08-08T03:32:59;99444.00;;;20.56;58.52
32875;BME280;40468;42.128;24.750;2023-08-08T03:34:29;99444.25;;;20.53;58.53
32875;BME280;40468;42.128;24.750;2023-08-08T03:36:01;99456.63;;;20.52;58.37
32875;BME280;40468;42.128;24.750;2023-08-08T03:37:32;99463.63;;;20.53;58.43
32875;BME280;40468;42.128;24.750;2023-08-08T03:39:04;99461.22;;;20.50;58.46
32875;BME280;40468;42.128;24.750;2023-08-08T03:40:38;99464.81;;;20.49;58.82
32875;BME280;40468;42.128;24.750;2023-08-08T03:42:10;99463.44;;;20.45;59.04
32875;BME280;40468;42.128;24.750;2023-08-08T03:43:41;99464.44;;;20.44;58.84
32875;BME280;40468;42.128;24.750;2023-08-08T03:45:12;99467.75;;;20.46;59.15
32875;BME280;40468;42.128;24.750;2023-08-08T03:46:43;99469.72;;;20.44;59.33
32875;BME280;40468;42.128;24.750;2023-08-08T03:48:14;99471.78;;;20.40;59.97
32875;BME280;40468;42.128;24.750;2023-08-08T03:49:45;99469.88;;;20.33;60.05
32875;BME280;40468;42.128;24.750;2023-08-08T03:51:16;99479.06;;;20.38;60.06
32875;BME280;40468;42.128;24.750;2023-08-08T03:52:48;99485.00;;;20.40;59.97
32875;BME280;40468;42.128;24.750;2023-08-08T03:54:18;99484.88;;;20.42;59.79
32875;BME280;40468;42.128;24.750;2023-08-08T03:55:50;99492.66;;;20.43;59.95
32875;BME280;40468;42.128;24.750;2023-08-08T03:57:22;99505.91;;;20.43;60.02
32875;BME280;40468;42.128;24.750;2023-08-08T03:58:53;99511.34;;;20.42;60.14
32875;BME280;40468;42.128;24.750;2023-08-08T04:00:24;99517.63;;;20.41;60.06
32875;BME280;40468;42.128;24.750;2023-08-08T04:01:55;99514.97;;;20.41;60.30
32875;BME280;40468;42.128;24.750;2023-08-08T04:03:26;99519.84;;;20.36;60.29
32875;BME280;40468;42.128;24.750;2023-08-08T04:04:57;99520.38;;;20.30;60.65
32875;BME280;40468;42.128;24.750;2023-08-08T04:06:28;99521.34;;;20.29;60.54
32875;BME280;40468;42.128;24.750;2023-08-08T04:08:00;99526.78;;;20.27;60.56
32875;BME280;40468;42.128;24.750;2023-08-08T04:09:30;99534.44;;;20.20;60.81
32875;BME280;40468;42.128;24.750;2023-08-08T04:11:02;99527.72;;;20.16;60.81
32875;BME280;40468;42.128;24.750;2023-08-08T04:12:34;99535.09;;;20.13;60.78
32875;BME280;40468;42.128;24.750;2023-08-08T04:14:06;99541.66;;;20.09;60.94
32875;BME280;40468;42.128;24.750;2023-08-08T04:15:37;99546.50;;;20.04;61.15
32875;BME280;40468;42.128;24.750;2023-08-08T04:17:08;99550.13;;;20.03;61.58
32875;BME280;40468;42.128;24.750;2023-08-08T04:18:39;99548.00;;;19.96;62.32
32875;BME280;40468;42.128;24.750;2023-08-08T04:20:10;99548.69;;;19.89;63.71
32875;BME280;40468;42.128;24.750;2023-08-08T04:21:42;99548.53;;;19.81;64.52
32875;BME280;40468;42.128;24.750;2023-08-08T04:23:13;99554.34;;;19.74;65.10
32875;BME280;40468;42.128;24.750;2023-08-08T04:24:44;99567.94;;;19.70;65.75
32875;BME280;40468;42.128;24.750;2023-08-08T04:26:15;99559.84;;;19.62;66.61
32875;BME280;40468;42.128;24.750;2023-08-08T04:27:48;99570.66;;;19.59;66.97
32875;BME280;40468;42.128;24.750;2023-08-08T04:29:18;99573.84;;;19.52;67.67
32875;BME280;40468;42.128;24.750;2023-08-08T04:30:50;99578.53;;;19.49;67.88
32875;BME280;40468;42.128;24.750;2023-08-08T04:32:20;99564.06;;;19.43;68.33
32875;BME280;40468;42.128;24.750;2023-08-08T04:33:52;99561.81;;;19.39;69.29
32875;BME280;40468;42.128;24.750;2023-08-08T04:35:25;99564.16;;;19.32;69.67
32875;BME280;40468;42.128;24.750;2023-08-08T04:36:57;99559.41;;;19.26;70.09
32875;BME280;40468;42.128;24.750;2023-08-08T04:38:28;99560.59;;;19.22;70.20
32875;BME280;40468;42.128;24.750;2023-08-08T04:39:59;99562.41;;;19.21;70.37
32875;BME280;40468;42.128;24.750;2023-08-08T04:41:31;99563.50;;;19.19;70.41
32875;BME280;40468;42.128;24.750;2023-08-08T04:43:03;99552.13;;;19.18;70.49
32875;BME280;40468;42.128;24.750;2023-08-08T04:44:34;99562.56;;;19.20;70.48
32875;BME280;40468;42.128;24.750;2023-08-08T04:46:05;99558.09;;;19.20;70.79
32875;BME280;40468;42.128;24.750;2023-08-08T04:47:36;99568.78;;;19.19;70.99
32875;BME280;40468;42.128;24.750;2023-08-08T04:49:07;99578.66;;;19.17;70.99
32875;BME280;40468;42.128;24.750;2023-08-08T04:50:38;99576.84;;;19.17;71.30
32875;BME280;40468;42.128;24.750;2023-08-08T04:52:16;99579.75;;;19.14;71.50
32875;BME280;40468;42.128;24.750;2023-08-08T04:53:48;99587.22;;;19.09;71.73
32875;BME280;40468;42.128;24.750;2023-08-08T04:55:18;99594.56;;;19.05;71.91
32875;BME280;40468;42.128;24.750;2023-08-08T04:56:50;99605.09;;;19.05;71.83
32875;BME280;40468;42.128;24.750;2023-08-08T04:58:22;99609.94;;;19.00;71.82
32875;BME280;40468;42.128;24.750;2023-08-08T04:59:54;99615.56;;;18.96;72.23
32875;BME280;40468;42.128;24.750;2023-08-08T05:01:27;99604.31;;;18.94;72.37
32875;BME280;40468;42.128;24.750;2023-08-08T05:03:00;99612.59;;;18.89;72.77
32875;BME280;40468;42.128;24.750;2023-08-08T05:04:38;99620.19;;;18.82;73.01
32875;BME280;40468;42.128;24.750;2023-08-08T05:06:10;99616.16;;;18.78;73.01
32875;BME280;40468;42.128;24.750;2023-08-08T05:07:41;99619.63;;;18.79;72.88
32875;BME280;40468;42.128;24.750;2023-08-08T05:09:12;99629.34;;;18.78;73.04
32875;BME280;40468;42.128;24.750;2023-08-08T05:10:44;99624.66;;;18.71;73.53
32875;BME280;40468;42.128;24.750;2023-08-08T05:12:15;99638.09;;;18.68;73.78
32875;BME280;40468;42.128;24.750;2023-08-08T05:13:48;99634.72;;;18.65;73.75
32875;BME280;40468;42.128;24.750;2023-08-08T05:15:20;99637.25;;;18.67;73.74
32875;BME280;40468;42.128;24.750;2023-08-08T05:16:50;99639.66;;;18.70;73.36
32875;BME280;40468;42.128;24.750;2023-08-08T05:18:22;99647.34;;;18.73;72.96
32875;BME280;40468;42.128;24.750;2023-08-08T05:19:53;99658.47;;;18.77;72.81
32875;BME280;40468;42.128;24.750;2023-08-08T05:21:24;99657.75;;;18.75;73.08
32875;BME280;40468;42.128;24.750;2023-08-08T05:22:55;99664.84;;;18.74;72.98
32875;BME280;40468;42.128;24.750;2023-08-08T05:24:27;99661.84;;;18.79;72.68
32875;BME280;40468;42.128;24.750;2023-08-08T05:25:58;99667.69;;;18.82;72.55
32875;BME280;40468;42.128;24.750;2023-08-08T05:27:30;99674.38;;;18.86;72.06
32875;BME280;40468;42.128;24.750;2023-08-08T05:29:02;99680.50;;;18.87;72.04
32875;BME280;40468;42.128;24.750;2023-08-08T05:30:33;99675.00;;;18.90;72.00
32875;BME280;40468;42.128;24.750;2023-08-08T05:32:05;99678.47;;;18.91;71.88
32875;BME280;40468;42.128;24.750;2023-08-08T05:33:37;99680.97;;;18.92;71.95
32875;BME280;40468;42.128;24.750;2023-08-08T05:35:09;99677.63;;;18.90;72.28
32875;BME280;40468;42.128;24.750;2023-08-08T05:36:39;99679.06;;;18.83;72.60
32875;BME280;40468;42.128;24.750;2023-08-08T05:38:11;99692.25;;;18.83;72.61
32875;BME280;40468;42.128;24.750;2023-08-08T05:39:42;99694.06;;;18.82;72.55
32875;BME280;40468;42.128;24.750;2023-08-08T05:41:13;99707.38;;;18.81;72.85
32875;BME280;40468;42.128;24.750;2023-08-08T05:42:45;99700.44;;;18.80;72.69
32875;BME280;40468;42.128;24.750;2023-08-08T05:44:18;99698.63;;;18.80;72.70
32875;BME280;40468;42.128;24.750;2023-08-08T05:45:49;99700.56;;;18.78;72.65
32875;BME280;40468;42.128;24.750;2023-08-08T05:47:21;99703.31;;;18.77;72.60
32875;BME280;40468;42.128;24.750;2023-08-08T05:48:51;99704.75;;;18.70;72.92
32875;BME280;40468;42.128;24.750;2023-08-08T05:50:25;99705.09;;;18.65;73.25
32875;BME280;40468;42.128;24.750;2023-08-08T05:51:56;99704.63;;;18.60;73.18
32875;BME280;40468;42.128;24.750;2023-08-08T05:53:28;99710.53;;;18.52;73.60
32875;BME280;40468;42.128;24.750;2023-08-08T05:54:59;99711.03;;;18.46;73.54
32875;BME280;40468;42.128;24.750;2023-08-08T05:56:36;99715.56;;;18.44;73.49
32875;BME280;40468;42.128;24.750;2023-08-08T05:58:07;99722.66;;;18.44;73.63
32875;BME280;40468;42.128;24.750;2023-08-08T05:59:40;99726.59;;;18.38;74.02
32875;BME280;40468;42.128;24.750;2023-08-08T06:01:11;99721.69;;;18.33;74.03
32875;BME280;40468;42.128;24.750;2023-08-08T06:02:43;99717.38;;;18.32;73.84
32875;BME280;40468;42.128;24.750;2023-08-08T06:04:13;99726.13;;;18.33;73.85
32875;BME280;40468;42.128;24.750;2023-08-08T06:05:45;99725.53;;;18.29;74.27
32875;BME280;40468;42.128;24.750;2023-08-08T06:07:16;99728.66;;;18.23;74.21
32875;BME280;40468;42.128;24.750;2023-08-08T06:08:48;99729.22;;;18.15;74.43
32875;BME280;40468;42.128;24.750;2023-08-08T06:10:19;99723.38;;;18.12;74.69
32875;BME280;40468;42.128;24.750;2023-08-08T06:11:50;99714.88;;;18.08;74.65
32875;BME280;40468;42.128;24.750;2023-08-08T06:13:21;99722.28;;;18.03;74.81
32875;BME280;40468;42.128;24.750;2023-08-08T06:14:54;99720.72;;;18.01;74.89
32875;BME280;40468;42.128;24.750;2023-08-08T06:16:25;99726.13;;;17.99;75.03
32875;BME280;40468;42.128;24.750;2023-08-08T06:17:57;99724.44;;;17.98;74.71
32875;BME280;40468;42.128;24.750;2023-08-08T06:19:35;99731.25;;;18.01;74.85
32875;BME280;40468;42.128;24.750;2023-08-08T06:21:07;99734.72;;;18.01;74.87
32875;BME280;40468;42.128;24.750;2023-08-08T06:22:38;99733.06;;;18.00;74.92
32875;BME280;40468;42.128;24.750;2023-08-08T06:24:10;99728.88;;;17.98;74.95
32875;BME280;40468;42.128;24.750;2023-08-08T06:25:43;99738.22;;;18.02;74.55
32875;BME280;40468;42.128;24.750;2023-08-08T06:27:14;99727.78;;;18.00;74.57
32875;BME280;40468;42.128;24.750;2023-08-08T06:28:46;99719.88;;;18.00;74.92
32875;BME280;40468;42.128;24.750;2023-08-08T06:30:21;99726.72;;;18.03;74.42
32875;BME280;40468;42.128;24.750;2023-08-08T06:31:53;99732.47;;;18.08;74.31
32875;BME280;40468;42.128;24.750;2023-08-08T06:33:32;99727.06;;;18.09;74.21
32875;BME280;40468;42.128;24.750;2023-08-08T06:43:39;99724.56;;;18.30;73.45
32875;BME280;40468;42.128;24.750;2023-08-08T06:52:34;99718.78;;;18.59;72.36
32875;BME280;40468;42.128;24.750;2023-08-08T06:54:16;99719.38;;;18.62;71.98
32875;BME280;40468;42.128;24.750;2023-08-08T06:55:52;99715.41;;;18.68;71.78
32875;BME280;40468;42.128;24.750;2023-08-08T06:59:18;99725.41;;;18.76;71.76
32875;BME280;40468;42.128;24.750;2023-08-08T07:02:00;99728.69;;;19.00;70.83
32875;BME280;40468;42.128;24.750;2023-08-08T07:03:32;99722.78;;;19.08;70.57
32875;BME280;40468;42.128;24.750;2023-08-08T07:05:03;99724.66;;;19.17;70.43
32875;BME280;40468;42.128;24.750;2023-08-08T07:06:35;99725.81;;;19.24;70.13
32875;BME280;40468;42.128;24.750;2023-08-08T07:08:09;99717.53;;;19.29;70.23
32875;BME280;40468;42.128;24.750;2023-08-08T07:09:41;99720.03;;;19.30;70.42
32875;BME280;40468;42.128;24.750;2023-08-08T07:11:12;99720.03;;;19.30;70.39
32875;BME280;40468;42.128;24.750;2023-08-08T07:12:44;99714.50;;;19.33;70.16
32875;BME280;40468;42.128;24.750;2023-08-08T07:14:16;99715.94;;;19.38;70.05
32875;BME280;40468;42.128;24.750;2023-08-08T07:15:49;99716.63;;;19.40;70.01
32875;BME280;40468;42.128;24.750;2023-08-08T07:19:52;99718.97;;;19.54;69.51
32875;BME280;40468;42.128;24.750;2023-08-08T07:21:49;99724.44;;;19.62;69.37
32875;BME280;40468;42.128;24.750;2023-08-08T07:23:29;99718.41;;;19.71;69.17
32875;BME280;40468;42.128;24.750;2023-08-08T07:25:00;99728.09;;;19.82;68.86
32875;BME280;40468;42.128;24.750;2023-08-08T07:26:33;99730.31;;;19.87;68.64
32875;BME280;40468;42.128;24.750;2023-08-08T07:28:05;99736.00;;;19.82;68.37
32875;BME280;40468;42.128;24.750;2023-08-08T07:29:36;99738.78;;;19.81;68.21
32875;BME280;40468;42.128;24.750;2023-08-08T07:31:08;99737.09;;;19.80;68.17
32875;BME280;40468;42.128;24.750;2023-08-08T07:32:40;99738.06;;;19.78;67.92
32875;BME280;40468;42.128;24.750;2023-08-08T07:34:11;99737.38;;;19.76;67.84
32875;BME280;40468;42.128;24.750;2023-08-08T07:35:43;99736.38;;;19.77;67.68
32875;BME280;40468;42.128;24.750;2023-08-08T07:37:17;99739.59;;;19.81;67.50
32875;BME280;40468;42.128;24.750;2023-08-08T07:38:50;99734.94;;;19.85;67.29
32875;BME280;40468;42.128;24.750;2023-08-08T07:40:22;99738.00;;;19.90;66.96
32875;BME280;40468;42.128;24.750;2023-08-08T07:41:53;99735.91;;;19.93;67.07
32875;BME280;40468;42.128;24.750;2023-08-08T07:43:24;99731.09;;;19.98;66.85
32875;BME280;40468;42.128;24.750;2023-08-08T07:44:55;99736.00;;;20.03;66.76
32875;BME280;40468;42.128;24.750;2023-08-08T07:46:27;99734.47;;;20.10;66.53
32875;BME280;40468;42.128;24.750;2023-08-08T07:47:57;99736.59;;;20.16;66.25
32875;BME280;40468;42.128;24.750;2023-08-08T07:49:32;99741.78;;;20.18;66.20
32875;BME280;40468;42.128;24.750;2023-08-08T07:51:14;99742.44;;;20.20;65.95
32875;BME280;40468;42.128;24.750;2023-08-08T07:52:48;99748.72;;;20.19;65.60
32875;BME280;40468;42.128;24.750;2023-08-08T07:54:22;99750.66;;;20.17;65.57
32875;BME280;40468;42.128;24.750;2023-08-08T07:56:02;99751.78;;;20.14;65.41
32875;BME280;40468;42.128;24.750;2023-08-08T07:59:04;99751.19;;;20.11;65.32
32875;BME280;40468;42.128;24.750;2023-08-08T08:00:32;99746.59;;;20.13;65.03
32875;BME280;40468;42.128;24.750;2023-08-08T08:02:07;99750.09;;;20.13;64.90
32875;BME280;40468;42.128;24.750;2023-08-08T08:03:42;99757.06;;;20.14;64.73
32875;BME280;40468;42.128;24.750;2023-08-08T08:05:22;99750.22;;;20.12;64.76
32875;BME280;40468;42.128;24.750;2023-08-08T08:06:55;99751.06;;;20.12;64.51
32875;BME280;40468;42.128;24.750;2023-08-08T08:08:27;99753.69;;;20.12;64.49
32875;BME280;40468;42.128;24.750;2023-08-08T08:10:00;99753.69;;;20.12;64.68
32875;BME280;40468;42.128;24.750;2023-08-08T08:11:32;99755.09;;;20.16;64.45
32875;BME280;40468;42.128;24.750;2023-08-08T08:13:05;99751.25;;;20.20;64.59
32875;BME280;40468;42.128;24.750;2023-08-08T08:14:41;99751.81;;;20.24;64.40
32875;BME280;40468;42.128;24.750;2023-08-08T08:16:12;99754.91;;;20.29;64.16
32875;BME280;40468;42.128;24.750;2023-08-08T08:17:44;99749.19;;;20.34;64.09
32875;BME280;40468;42.128;24.750;2023-08-08T08:19:14;99748.09;;;20.36;63.76
32875;BME280;40468;42.128;24.750;2023-08-08T08:20:46;99748.09;;;20.36;63.23
32875;BME280;40468;42.128;24.750;2023-08-08T08:22:22;99747.00;;;20.39;63.15
32875;BME280;40468;42.128;24.750;2023-08-08T08:28:48;99743.28;;;20.51;62.26
32875;BME280;40468;42.128;24.750;2023-08-08T08:30:21;99747.50;;;20.54;61.67